Time;durP1;ratioP1;P1;durP2;ratioP2;P2;SDS_P1;SDS_P2;PMS_P1;PMS_P2;Temp;Humidity;BMP_temperature;BMP_pressure;BME280_temperature;BME280_humidity;BME280_pressure;Samples;Min_cycle;Max_cycle;Signal;HPM_P1;HPM_P2
2022/06/21 00:00:26;;;;;;;7.40;3.53;;;12.00;99.90;;;;;;5020142;28;20246;-47
2022/06/21 00:02:59;;;;;;;6.73;3.07;;;11.90;99.90;;;;;;5044310;28;20274;-44
2022/06/21 00:05:31;;;;;;;7.03;3.10;;;11.90;99.90;;;;;;5037818;28;20195;-46
2022/06/21 00:07:58;;;;;;;5.53;3.40;;;11.90;99.90;;;;;;5045589;28;20227;-46
2022/06/21 00:10:25;;;;;;;6.70;3.17;;;11.90;99.90;;;;;;5044312;28;20200;-46
2022/06/21 00:12:52;;;;;;;4.30;3.40;;;11.90;99.90;;;;;;5044210;28;20216;-45
2022/06/21 00:15:19;;;;;;;6.37;3.40;;;11.90;99.90;;;;;;5034145;28;20215;-47
2022/06/21 00:17:49;;;;;;;5.33;3.13;;;11.90;99.90;;;;;;5033100;28;20219;-47
2022/06/21 00:20:20;;;;;;;5.30;2.80;;;11.90;99.90;;;;;;5045803;28;20578;-46
2022/06/21 00:22:49;;;;;;;6.03;3.70;;;11.80;99.90;;;;;;5043028;28;20215;-47
2022/06/21 00:25:19;;;;;;;7.60;3.60;;;11.90;99.90;;;;;;5045672;28;20203;-47
2022/06/21 00:27:47;;;;;;;8.03;3.27;;;11.90;99.90;;;;;;5042719;28;20939;-46
2022/06/21 00:30:15;;;;;;;9.70;4.43;;;11.90;99.90;;;;;;5032067;28;20215;-45
2022/06/21 00:32:42;;;;;;;7.27;3.13;;;11.80;99.90;;;;;;5027249;28;20913;-50
2022/06/21 00:35:12;;;;;;;8.67;3.33;;;11.80;99.90;;;;;;5045244;28;20199;-45
2022/06/21 00:37:41;;;;;;;9.33;3.53;;;;;;;;;;5041525;28;20225;-45
2022/06/21 00:40:17;;;;;;;5.73;3.43;;;;;;;;;;5045480;28;20218;-47
2022/06/21 00:42:46;;;;;;;7.50;3.40;;;11.80;99.90;;;;;;5042022;28;20233;-44
2022/06/21 00:45:21;;;;;;;13.00;4.00;;;11.70;99.90;;;;;;5045239;28;20195;-45
2022/06/21 00:47:53;;;;;;;5.40;3.37;;;11.70;99.90;;;;;;5024733;28;20199;-45
2022/06/21 00:50:26;;;;;;;8.57;3.57;;;11.70;99.90;;;;;;5044430;28;20195;-45
2022/06/21 00:52:59;;;;;;;4.73;3.67;;;11.70;99.90;;;;;;5037830;28;20196;-44
2022/06/21 00:55:35;;;;;;;7.87;4.27;;;11.70;99.90;;;;;;5043281;28;20235;-45
2022/06/21 00:58:03;;;;;;;8.73;3.93;;;11.70;99.90;;;;;;5045310;28;20229;-45
2022/06/21 01:00:34;;;;;;;7.73;3.50;;;11.70;99.90;;;;;;5037675;28;20543;-46
2022/06/21 01:03:05;;;;;;;6.73;4.17;;;11.70;99.90;;;;;;5027171;28;20221;-44
2022/06/21 01:05:37;;;;;;;13.50;4.37;;;11.70;99.90;;;;;;5041386;28;20199;-45
2022/06/21 01:08:05;;;;;;;6.43;3.93;;;11.60;99.90;;;;;;5044330;28;20726;-45
2022/06/21 01:10:33;;;;;;;9.40;4.00;;;11.60;99.90;;;;;;5041626;28;20210;-45
2022/06/21 01:13:05;;;;;;;7.40;4.33;;;11.60;99.90;;;;;;5044652;28;20199;-45
2022/06/21 01:15:37;;;;;;;4.20;3.63;;;11.60;99.90;;;;;;5041385;28;20209;-45
2022/06/21 01:18:07;;;;;;;6.53;4.07;;;11.60;99.90;;;;;;5018268;28;20586;-44
2022/06/21 01:20:37;;;;;;;6.73;4.33;;;11.60;99.90;;;;;;5040618;28;20278;-45
2022/06/21 01:23:12;;;;;;;6.87;5.13;;;11.50;99.90;;;;;;5044789;28;20685;-46
2022/06/21 01:25:49;;;;;;;10.03;5.07;;;11.50;99.90;;;;;;5034658;28;21027;-44
2022/06/21 01:28:18;;;;;;;10.40;5.10;;;11.50;99.90;;;;;;5044499;28;20219;-49
2022/06/21 01:30:48;;;;;;;8.23;5.07;;;11.50;99.90;;;;;;5038897;28;20223;-46
2022/06/21 01:33:18;;;;;;;7.57;4.60;;;11.50;99.90;;;;;;5033854;28;20204;-44
2022/06/21 01:35:48;;;;;;;8.87;5.33;;;11.50;99.90;;;;;;5030833;28;20207;-46
2022/06/21 01:38:19;;;;;;;8.93;5.13;;;;;;;;;;5044308;28;20219;-44
2022/06/21 01:40:48;;;;;;;10.30;6.10;;;;;;;;;;5041091;28;20211;-45
2022/06/21 01:43:17;;;;;;;12.23;5.23;;;;;;;;;;5043975;28;20213;-44
2022/06/21 01:45:48;;;;;;;12.43;5.40;;;;;;;;;;5040761;28;20977;-44
2022/06/21 01:48:18;;;;;;;10.47;4.77;;;;;;;;;;5044369;28;20281;-43
2022/06/21 01:50:46;;;;;;;6.60;4.93;;;;;;;;;;5029610;28;20238;-44
2022/06/21 01:53:13;;;;;;;8.67;5.27;;;;;;;;;;5043785;28;20206;-46
2022/06/21 01:55:41;;;;;;;9.37;4.17;;;;;;;;;;5039946;28;20199;-47
2022/06/21 01:58:11;;;;;;;10.43;5.03;;;;;;;;;;5044214;28;20215;-46
2022/06/21 02:00:40;;;;;;;12.90;5.07;;;;;;;;;;5036308;28;20203;-45
2022/06/21 02:03:11;;;;;;;10.40;4.73;;;;;;;;;;5037253;28;20207;-45
2022/06/21 02:05:40;;;;;;;8.40;5.03;;;;;;;;;;5024756;28;20207;-44
2022/06/21 02:08:08;;;;;;;11.53;4.63;;;;;;;;;;5043773;28;20199;-46
2022/06/21 02:10:37;;;;;;;13.53;5.30;;;;;;;;;;5039912;28;20203;-46
2022/06/21 02:13:08;;;;;;;12.73;5.17;;;;;;;;;;5044008;28;20203;-44
2022/06/21 02:15:37;;;;;;;16.93;5.00;;;;;;;;;;5039933;28;20199;-46
2022/06/21 02:18:07;;;;;;;20.77;5.57;;;;;;;;;;5043824;28;20226;-44
2022/06/21 02:20:38;;;;;;;8.23;5.37;;;;;;;;;;5025468;28;20207;-49
2022/06/21 02:23:07;;;;;;;9.13;4.37;;;;;;;;;;5043400;28;20199;-47
2022/06/21 02:25:34;;;;;;;9.23;4.73;;;;;;;;;;5039734;28;20203;-45
2022/06/21 02:28:03;;;;;;;11.27;4.70;;;;;;;;;;5043643;28;20195;-46
2022/06/21 02:30:30;;;;;;;11.37;4.50;;;;;;;;;;5033600;28;20257;-50
2022/06/21 02:32:59;;;;;;;12.47;4.87;;;;;;;;;;5041942;28;20199;-44
2022/06/21 02:35:27;;;;;;;20.23;6.17;;;;;;;;;;5033660;28;20210;-44
2022/06/21 02:37:58;;;;;;;8.23;4.10;;;;;;;;;;5037227;28;20225;-46
2022/06/21 02:40:27;;;;;;;13.80;5.27;;;;;;;;;;5041374;28;20210;-47
2022/06/21 02:42:56;;;;;;;11.00;5.03;;;;;;;;;;5041978;28;20262;-46
2022/06/21 02:45:26;;;;;;;13.00;5.27;;;;;;;;;;5041587;28;20191;-46
2022/06/21 02:47:54;;;;;;;8.27;4.33;;;;;;;;;;5040725;28;20203;-45
2022/06/21 02:50:25;;;;;;;11.37;5.30;;;;;;;;;;5038090;28;20230;-45
2022/06/21 02:52:55;;;;;;;16.27;5.30;;;;;;;;;;5036181;28;20203;-44
2022/06/21 02:55:36;;;;;;;11.53;4.73;;;;;;;;;;5041727;28;20278;-45
2022/06/21 02:58:06;;;;;;;10.77;4.53;;;;;;;;;;5043235;28;20227;-45
2022/06/21 03:00:33;;;;;;;9.27;5.37;;;;;;;;;;5039674;28;20222;-45
2022/06/21 03:03:01;;;;;;;13.47;4.97;;;;;;;;;;5042818;28;20249;-46
2022/06/21 03:05:29;;;;;;;15.47;4.83;;;;;;;;;;5040719;28;20596;-47
2022/06/21 03:08:00;;;;;;;10.90;4.90;;;11.40;99.90;;;;;;5021975;28;20238;-45
2022/06/21 03:10:31;;;;;;;14.40;5.10;;;11.40;99.90;;;;;;5037378;28;20204;-45
2022/06/21 03:13:04;;;;;;;16.30;5.37;;;11.30;99.90;;;;;;5042633;28;20206;-47
2022/06/21 03:15:31;;;;;;;12.57;5.07;;;11.30;99.90;;;;;;5040040;28;20285;-44
2022/06/21 03:18:02;;;;;;;15.20;4.80;;;11.30;99.90;;;;;;5042457;28;20269;-44
2022/06/21 03:20:32;;;;;;;13.40;5.43;;;11.30;99.90;;;;;;5040207;28;20195;-47
2022/06/21 03:22:59;;;;;;;14.73;4.63;;;11.30;99.90;;;;;;5028478;28;20225;-46
2022/06/21 03:25:30;;;;;;;10.40;5.07;;;11.20;99.90;;;;;;5040489;28;20714;-45
2022/06/21 03:28:01;;;;;;;15.47;5.03;;;11.30;99.90;;;;;;5042485;28;20219;-44
2022/06/21 03:30:31;;;;;;;10.43;3.97;;;11.20;99.90;;;;;;5036477;28;20206;-47
2022/06/21 03:32:59;;;;;;;15.23;4.30;;;11.30;99.90;;;;;;5045583;28;20195;-49
2022/06/21 03:35:30;;;;;;;12.77;4.50;;;11.20;99.90;;;;;;5044222;28;20191;-44
2022/06/21 03:37:57;;;;;;;9.73;4.17;;;11.30;99.90;;;;;;5032020;28;20223;-48
2022/06/21 03:43:16;;;;;;;13.00;4.40;;;11.20;99.90;;;;;;5040074;28;20210;-47
2022/06/21 03:45:47;;;;;;;12.93;4.40;;;11.30;99.90;;;;;;5037712;28;20400;-44
2022/06/21 03:48:20;;;;;;;11.00;4.40;;;11.30;99.90;;;;;;5046442;28;20199;-44
2022/06/21 03:50:53;;;;;;;16.50;4.30;;;11.20;99.90;;;;;;5043638;28;20215;-47
2022/06/21 03:53:25;;;;;;;10.93;3.83;;;11.30;99.90;;;;;;5030942;28;20216;-48
2022/06/21 03:55:58;;;;;;;10.50;4.47;;;11.30;99.90;;;;;;5041528;28;20284;-45
2022/06/21 03:58:30;;;;;;;9.70;3.43;;;11.30;99.90;;;;;;5044377;28;20219;-47
2022/06/21 04:01:11;;;;;;;10.17;3.80;;;11.40;99.90;;;;;;5039122;28;20226;-44
2022/06/21 04:03:46;;;;;;;11.43;3.87;;;11.40;99.90;;;;;;5039962;28;20191;-44
2022/06/21 04:06:19;;;;;;;12.00;4.17;;;11.40;99.90;;;;;;5046217;28;20577;-47
2022/06/21 04:08:53;;;;;;;9.43;3.87;;;11.30;99.90;;;;;;5028871;28;20282;-45
2022/06/21 04:11:25;;;;;;;13.80;3.87;;;11.30;99.90;;;;;;5044875;28;20567;-46
2022/06/21 04:13:58;;;;;;;18.67;4.33;;;11.40;99.90;;;;;;5041360;28;20274;-46
2022/06/21 04:16:32;;;;;;;10.27;3.93;;;11.40;99.90;;;;;;5044219;28;20333;-45
2022/06/21 04:19:02;;;;;;;14.13;4.57;;;11.50;99.90;;;;;;5045571;28;20265;-45
2022/06/21 04:21:37;;;;;;;9.10;4.00;;;11.50;99.90;;;;;;5043350;28;20223;-45
2022/06/21 04:24:14;;;;;;;13.63;3.90;;;11.60;99.90;;;;;;5024842;28;20277;-45
2022/06/21 04:26:47;;;;;;;11.73;3.80;;;11.70;99.90;;;;;;5040448;28;20198;-44
2022/06/21 04:29:19;;;;;;;11.03;3.57;;;11.70;99.90;;;;;;5045765;28;20195;-44
2022/06/21 04:31:50;;;;;;;7.77;3.57;;;11.70;99.90;;;;;;5040022;28;20215;-45
2022/06/21 04:34:28;;;;;;;9.17;3.50;;;11.70;99.90;;;;;;5045060;28;20195;-45
2022/06/21 04:37:01;;;;;;;11.93;3.77;;;11.70;99.90;;;;;;5044441;28;20296;-45
2022/06/21 04:39:34;;;;;;;8.30;3.53;;;11.70;99.90;;;;;;5033661;28;20223;-47
2022/06/21 04:42:06;;;;;;;7.73;3.70;;;11.70;99.90;;;;;;5043815;28;20230;-45
2022/06/21 04:44:40;;;;;;;9.57;3.10;;;11.80;99.90;;;;;;5039315;28;20207;-47
2022/06/21 04:47:16;;;;;;;12.37;3.10;;;11.80;99.90;;;;;;5045452;28;20291;-45
2022/06/21 04:49:48;;;;;;;11.27;3.27;;;11.80;99.90;;;;;;5041848;28;20198;-47
2022/06/21 04:52:20;;;;;;;11.57;3.50;;;11.90;99.90;;;;;;5045344;28;20223;-44
2022/06/21 04:54:47;;;;;;;8.53;3.33;;;11.90;99.90;;;;;;5042125;28;20199;-45
2022/06/21 04:57:16;;;;;;;13.57;3.00;;;12.00;99.90;;;;;;5031187;28;20207;-44
2022/06/21 04:59:48;;;;;;;10.70;3.43;;;12.10;99.90;;;;;;5040140;28;20932;-44
2022/06/21 05:02:20;;;;;;;12.97;3.47;;;12.10;99.90;;;;;;5042717;28;20223;-46
2022/06/21 05:04:49;;;;;;;11.77;2.90;;;12.20;99.90;;;;;;5041892;28;20816;-47
2022/06/21 05:07:19;;;;;;;13.70;3.50;;;12.20;99.90;;;;;;5044919;28;20215;-45
2022/06/21 05:09:48;;;;;;;7.53;3.00;;;12.30;99.90;;;;;;5041940;28;20191;-46
2022/06/21 05:12:20;;;;;;;11.07;3.47;;;12.40;99.90;;;;;;5029192;28;20219;-45
2022/06/21 05:14:53;;;;;;;15.33;3.30;;;12.40;99.90;;;;;;5041669;28;20206;-46
2022/06/21 05:17:21;;;;;;;8.97;3.47;;;12.50;99.90;;;;;;5038022;28;20199;-46
2022/06/21 05:19:51;;;;;;;8.57;3.37;;;12.50;99.90;;;;;;5042139;28;20221;-48
2022/06/21 05:22:22;;;;;;;10.90;3.17;;;12.60;99.90;;;;;;5044438;28;20223;-48
2022/06/21 05:24:50;;;;;;;11.93;3.07;;;12.70;99.90;;;;;;5042223;28;20245;-44
2022/06/21 05:27:21;;;;;;;10.93;3.27;;;12.70;99.90;;;;;;5030659;28;20214;-45
2022/06/21 05:29:55;;;;;;;12.50;3.27;;;12.80;99.90;;;;;;5041938;28;20920;-45
2022/06/21 05:32:31;;;;;;;9.10;3.67;;;12.80;99.90;;;;;;5032502;28;20228;-46
2022/06/21 05:35:07;;;;;;;10.43;3.73;;;12.90;99.90;;;;;;5037809;28;20201;-46
2022/06/21 05:37:36;;;;;;;7.30;2.70;;;13.00;99.90;;;;;;5044314;28;20249;-52
2022/06/21 05:40:16;;;;;;;6.77;2.40;;;13.00;99.90;;;;;;5040401;28;20191;-44
2022/06/21 05:42:45;;;;;;;10.97;2.53;;;13.10;99.90;;;;;;5024868;28;20300;-47
2022/06/21 05:45:15;;;;;;;9.03;2.83;;;13.20;99.90;;;;;;5040877;28;20557;-44
2022/06/21 05:47:47;;;;;;;9.57;3.07;;;13.20;99.90;;;;;;5037842;28;20213;-47
2022/06/21 05:50:18;;;;;;;10.03;3.23;;;13.30;99.90;;;;;;5037922;28;20218;-48
2022/06/21 05:52:48;;;;;;;9.63;2.93;;;13.40;99.90;;;;;;5036944;28;20215;-46
2022/06/21 05:55:22;;;;;;;7.93;2.73;;;13.40;99.90;;;;;;5032034;28;20203;-46
2022/06/21 05:57:52;;;;;;;13.70;2.97;;;13.50;99.90;;;;;;5023034;28;20219;-47
2022/06/21 06:00:28;;;;;;;6.37;2.60;;;13.60;99.90;;;;;;5026910;28;20192;-47
2022/06/21 06:02:59;;;;;;;10.23;3.63;;;13.60;99.90;;;;;;5032300;28;20277;-45
2022/06/21 06:05:30;;;;;;;12.20;2.50;;;13.60;99.90;;;;;;5027705;28;20222;-45
2022/06/21 06:08:02;;;;;;;13.73;3.30;;;13.70;99.90;;;;;;5037015;28;20207;-46
2022/06/21 06:10:32;;;;;;;12.03;2.90;;;13.70;99.90;;;;;;5032807;28;20944;-45
2022/06/21 06:13:03;;;;;;;10.83;3.50;;;13.80;99.90;;;;;;5024634;28;20211;-45
2022/06/21 06:15:34;;;;;;;9.27;2.50;;;13.80;99.90;;;;;;5035353;28;20203;-49
2022/06/21 06:18:07;;;;;;;7.20;2.93;;;13.90;99.90;;;;;;5029408;28;20211;-47
2022/06/21 06:20:41;;;;;;;10.83;2.90;;;14.00;99.90;;;;;;5037466;28;20199;-46
2022/06/21 06:23:14;;;;;;;12.13;2.60;;;14.00;99.90;;;;;;5039839;28;20299;-45
2022/06/21 06:25:46;;;;;;;10.50;3.20;;;14.10;99.90;;;;;;5043707;28;20199;-47
2022/06/21 06:28:27;;;;;;;8.27;3.30;;;14.10;99.90;;;;;;5021407;28;20203;-45
2022/06/21 06:31:00;;;;;;;10.13;2.73;;;14.20;99.90;;;;;;5042488;28;20226;-46
2022/06/21 06:33:35;;;;;;;4.60;2.40;;;14.20;99.90;;;;;;5033958;28;23210;-50
2022/06/21 06:36:10;;;;;;;5.53;2.43;;;14.30;99.90;;;;;;5039994;28;20199;-45
2022/06/21 06:38:38;;;;;;;6.87;2.97;;;14.30;99.90;;;;;;5041362;28;20214;-50
2022/06/21 06:41:09;;;;;;;13.27;2.63;;;14.40;99.90;;;;;;5023567;28;20220;-46
2022/06/21 06:43:42;;;;;;;8.67;2.93;;;14.40;99.90;;;;;;5037192;28;20208;-47
2022/06/21 06:46:19;;;;;;;8.63;2.93;;;14.50;99.90;;;;;;5016072;28;20262;-46
2022/06/21 06:48:46;;;;;;;10.23;2.88;;;14.60;99.90;;;;;;5023608;28;20439;-45
2022/06/21 06:51:38;;;;;;;6.30;2.10;;;14.70;99.90;;;;;;5038828;28;20223;-48
2022/06/21 06:54:11;;;;;;;8.13;2.57;;;14.70;99.90;;;;;;5029814;28;20209;-48
2022/06/21 06:57:00;;;;;;;8.87;2.43;;;14.80;99.90;;;;;;5039262;28;20204;-45
2022/06/21 06:59:27;;;;;;;11.37;2.37;;;14.80;99.90;;;;;;5029223;28;20715;-45
2022/06/21 07:02:00;;;;;;;7.67;2.67;;;14.90;99.90;;;;;;5024227;28;20614;-46
2022/06/21 07:04:33;;;;;;;4.20;2.00;;;15.00;99.90;;;;;;5031918;28;20587;-44
2022/06/21 07:07:06;;;;;;;8.73;2.93;;;15.10;99.90;;;;;;5021469;28;20963;-46
2022/06/21 07:09:37;;;;;;;9.03;2.60;;;15.10;99.90;;;;;;5036142;28;20199;-49
2022/06/21 07:12:14;;;;;;;4.63;2.20;;;15.20;99.90;;;;;;5021865;28;20231;-45
2022/06/21 07:14:41;;;;;;;8.27;2.60;;;15.30;99.90;;;;;;5029107;28;20195;-50
2022/06/21 07:17:26;;;;;;;10.67;2.20;;;15.30;99.90;;;;;;5027652;28;20215;-47
2022/06/21 07:19:54;;;;;;;6.70;2.13;;;15.40;99.90;;;;;;5030691;28;20306;-46
2022/06/21 07:22:24;;;;;;;10.40;3.63;;;15.40;99.90;;;;;;5038441;28;20242;-46
2022/06/21 07:24:58;;;;;;;8.03;2.57;;;15.40;99.90;;;;;;5022691;28;20282;-51
2022/06/21 07:27:27;;;;;;;6.90;2.40;;;15.40;99.90;;;;;;5023383;28;20210;-46
2022/06/21 07:29:59;;;;;;;5.53;2.73;;;15.50;99.90;;;;;;5029927;28;20254;-49
2022/06/21 07:32:31;;;;;;;8.90;2.73;;;15.50;99.90;;;;;;5017261;28;20223;-47
2022/06/21 07:35:03;;;;;;;9.97;2.80;;;15.60;99.90;;;;;;5021539;28;20212;-45
2022/06/21 07:37:34;;;;;;;9.87;2.93;;;15.60;99.90;;;;;;5037430;28;20250;-46
2022/06/21 07:40:08;;;;;;;5.93;3.40;;;15.70;99.90;;;;;;5023608;28;20893;-47
2022/06/21 07:42:41;;;;;;;8.17;3.30;;;15.60;99.90;;;;;;5033789;28;20238;-44
2022/06/21 07:45:15;;;;;;;3.87;2.50;;;15.70;99.90;;;;;;5019378;28;20208;-44
2022/06/21 07:47:48;;;;;;;10.83;2.93;;;15.70;99.90;;;;;;5023569;28;20211;-46
2022/06/21 07:50:21;;;;;;;6.47;2.97;;;15.70;99.90;;;;;;5015842;28;20994;-44
2022/06/21 07:52:53;;;;;;;12.30;3.00;;;15.70;99.90;;;;;;5040547;28;20231;-43
2022/06/21 07:55:26;;;;;;;6.60;2.90;;;15.80;99.90;;;;;;5035731;28;20207;-43
2022/06/21 07:57:57;;;;;;;7.20;2.50;;;15.90;99.90;;;;;;5029915;28;20219;-46
2022/06/21 08:06:40;;;;;;;5.80;2.93;;;16.10;99.90;;;;;;5019637;28;20230;-45
2022/06/21 08:06:42;;;;;;;5.57;2.57;;;16.20;99.90;;;;;;4967812;28;21426;-47
2022/06/21 08:09:21;;;;;;;6.57;2.90;;;16.40;99.90;;;;;;4968045;28;20205;-46
2022/06/21 08:11:50;;;;;;;6.70;2.83;;;16.50;99.90;;;;;;5007581;28;20238;-42
2022/06/21 08:14:17;;;;;;;5.53;1.90;;;16.50;99.90;;;;;;5020445;28;22927;-44
2022/06/21 08:16:49;;;;;;;3.93;2.00;;;16.50;99.90;;;;;;5034397;28;20239;-41
2022/06/21 08:19:26;;;;;;;6.87;2.23;;;16.60;99.90;;;;;;5020118;28;20211;-44
2022/06/21 08:21:57;;;;;;;7.50;2.17;;;16.70;99.90;;;;;;5020625;28;20907;-44
2022/06/21 08:24:32;;;;;;;5.83;2.17;;;16.80;99.90;;;;;;5034729;28;20190;-47
2022/06/21 08:27:08;;;;;;;5.23;2.13;;;16.80;99.90;;;;;;5034854;28;20214;-45
2022/06/21 08:29:40;;;;;;;9.50;2.10;;;16.90;99.90;;;;;;5031907;28;20860;-45
2022/06/21 08:32:13;;;;;;;5.33;1.87;;;17.00;99.90;;;;;;5022272;28;20234;-47
2022/06/21 08:34:46;;;;;;;5.13;2.00;;;17.10;99.90;;;;;;5020845;28;20212;-44
2022/06/21 08:37:18;;;;;;;5.67;1.60;;;17.10;99.90;;;;;;5019432;28;20207;-47
2022/06/21 08:39:50;;;;;;;3.53;2.03;;;17.20;99.90;;;;;;5036611;28;20229;-47
2022/06/21 08:42:48;;;;;;;3.57;1.53;;;17.30;99.90;;;;;;5035619;28;20246;-44
2022/06/21 08:45:43;;;;;;;6.17;1.70;;;17.20;99.90;;;;;;5023825;28;20204;-44
2022/06/21 08:48:41;;;;;;;1.50;1.40;;;17.30;99.90;;;;;;5027213;28;20203;-44
2022/06/21 08:51:39;;;;;;;7.03;1.70;;;17.50;99.90;;;;;;5013871;28;20223;-45
2022/06/21 08:54:18;;;;;;;5.03;2.13;;;17.50;99.90;;;;;;5023870;28;20211;-45
2022/06/21 08:56:50;;;;;;;6.13;1.93;;;17.50;99.90;;;;;;5037745;28;20711;-49
2022/06/21 08:59:25;;;;;;;4.67;2.13;;;17.60;99.90;;;;;;5038168;28;20211;-46
2022/06/21 09:02:01;;;;;;;3.27;1.30;;;17.70;99.90;;;;;;5019247;28;20942;-45
2022/06/21 09:04:38;;;;;;;5.17;2.03;;;17.80;99.90;;;;;;5016168;28;21008;-42
2022/06/21 09:07:27;;;;;;;2.90;2.23;;;17.80;99.90;;;;;;5032487;28;20694;-45
2022/06/21 09:10:13;;;;;;;5.23;1.67;;;17.80;99.90;;;;;;5027136;28;20196;-43
2022/06/21 09:12:54;;;;;;;6.07;1.97;;;17.80;99.90;;;;;;5032274;28;20220;-46
2022/06/21 09:15:42;;;;;;;5.97;1.60;;;18.00;99.90;;;;;;5021277;28;20211;-44
2022/06/21 09:18:24;;;;;;;7.77;1.70;;;18.00;99.90;;;;;;5020738;28;20211;-48
2022/06/21 09:21:01;;;;;;;6.07;1.50;;;18.00;99.90;;;;;;5023209;28;20231;-42
2022/06/21 09:23:48;;;;;;;2.50;1.27;;;18.10;99.90;;;;;;5028064;28;20956;-42
2022/06/21 09:26:25;;;;;;;5.63;1.93;;;18.20;99.90;;;;;;5028056;28;20203;-46
2022/06/21 09:28:58;;;;;;;4.23;1.63;;;18.20;99.90;;;;;;5034091;28;20201;-47
2022/06/21 09:31:36;;;;;;;3.93;1.60;;;18.30;99.90;;;;;;5019489;28;21784;-45
2022/06/21 09:34:09;;;;;;;3.73;1.77;;;18.60;99.90;;;;;;5028780;28;20400;-47
2022/06/21 09:36:45;;;;;;;7.03;1.60;;;18.80;99.90;;;;;;5005419;28;20207;-44
2022/06/21 09:39:22;;;;;;;4.93;1.43;;;18.90;99.90;;;;;;5021482;28;20800;-49
2022/06/21 09:41:57;;;;;;;2.70;1.30;;;18.90;99.90;;;;;;5032482;28;20215;-45
2022/06/21 09:44:34;;;;;;;3.83;1.50;;;18.80;99.90;;;;;;5039132;28;20194;-45
2022/06/21 09:47:08;;;;;;;3.70;1.60;;;18.70;99.90;;;;;;5017143;28;20214;-44
2022/06/21 09:49:43;;;;;;;4.53;1.37;;;18.70;99.90;;;;;;5038780;28;20890;-44
2022/06/21 09:52:20;;;;;;;3.80;1.90;;;18.70;99.90;;;;;;5019052;28;20637;-44
2022/06/21 09:54:56;;;;;;;5.70;1.67;;;18.70;99.90;;;;;;5028245;28;20742;-45
2022/06/21 09:57:29;;;;;;;6.23;1.97;;;18.70;99.90;;;;;;5034429;28;20278;-47
2022/06/21 10:00:06;;;;;;;3.87;1.50;;;18.60;99.90;;;;;;5033655;28;20307;-47
2022/06/21 10:02:53;;;;;;;6.37;1.60;;;18.80;99.90;;;;;;5034208;28;20719;-46
2022/06/21 10:05:27;;;;;;;4.87;1.90;;;18.80;99.90;;;;;;5031339;28;20200;-44
2022/06/21 10:08:05;;;;;;;3.63;1.30;;;18.90;99.90;;;;;;5024428;28;20211;-48
2022/06/21 10:10:47;;;;;;;7.37;2.83;;;18.90;99.90;;;;;;5028416;28;21310;-45
2022/06/21 10:13:30;;;;;;;3.03;1.47;;;19.00;99.90;;;;;;5027296;28;20199;-45
2022/06/21 10:16:15;;;;;;;4.30;1.53;;;19.00;99.90;;;;;;5039332;28;20299;-43
2022/06/21 10:19:00;;;;;;;2.53;1.40;;;19.00;99.90;;;;;;5037711;28;20569;-43
2022/06/21 10:21:44;;;;;;;5.27;1.83;;;19.00;99.90;;;;;;5035823;28;20203;-44
2022/06/21 10:24:32;;;;;;;2.13;1.17;;;19.10;99.90;;;;;;5018735;28;20547;-46
2022/06/21 10:27:20;;;;;;;3.30;1.20;;;19.20;99.90;;;;;;5035428;28;20214;-46
2022/06/21 10:30:20;;;;;;;3.20;1.33;;;19.30;99.90;;;;;;5033869;28;20204;-44
2022/06/21 10:33:05;;;;;;;4.47;1.57;;;19.30;99.90;;;;;;5029787;28;20239;-49
2022/06/21 10:36:02;;;;;;;2.53;1.60;;;19.20;99.90;;;;;;5033307;28;20191;-44
2022/06/21 10:38:45;;;;;;;3.97;1.80;;;19.30;99.90;;;;;;5037680;28;20215;-47
2022/06/21 10:41:25;;;;;;;4.67;1.67;;;19.30;99.90;;;;;;5016657;28;20253;-47
2022/06/21 10:44:11;;;;;;;4.27;1.33;;;19.40;99.90;;;;;;5029415;28;20590;-48
2022/06/21 10:46:44;;;;;;;3.20;1.50;;;19.40;99.90;;;;;;5027706;28;20195;-47
2022/06/21 10:49:41;;;;;;;1.83;1.33;;;19.50;99.90;;;;;;5033139;28;20206;-45
2022/06/21 10:52:27;;;;;;;1.77;1.20;;;19.70;99.90;;;;;;5029035;28;20710;-45
2022/06/21 10:55:17;;;;;;;3.70;1.43;;;19.70;99.90;;;;;;5034325;28;20214;-44
2022/06/21 10:58:09;;;;;;;4.57;1.90;;;19.70;99.90;;;;;;5026613;28;20215;-47
2022/06/21 11:03:44;;;;;;;3.67;1.60;;;19.70;99.90;;;;;;5025272;28;20290;-46
2022/06/21 11:06:25;;;;;;;4.17;1.53;;;19.80;99.90;;;;;;5034952;28;20289;-46
2022/06/21 11:09:01;;;;;;;3.87;1.17;;;19.80;99.90;;;;;;5033298;28;20557;-51
2022/06/21 11:11:34;;;;;;;4.30;1.30;;;19.90;99.90;;;;;;5021423;28;20304;-45
2022/06/21 11:14:09;;;;;;;5.13;1.63;;;19.90;99.90;;;;;;5025896;28;20203;-44
2022/06/21 11:16:47;;;;;;;4.53;1.63;;;19.90;99.70;;;;;;5026513;28;21020;-50
2022/06/21 11:19:20;;;;;;;2.83;1.53;;;19.80;99.90;;;;;;5024777;28;20214;-45
2022/06/21 11:22:01;;;;;;;7.37;1.80;;;19.90;99.90;;;;;;5032825;28;20298;-46
2022/06/21 11:24:40;;;;;;;4.07;1.50;;;20.00;99.90;;;;;;5034333;28;20183;-49
2022/06/21 11:27:16;;;;;;;2.43;1.33;;;20.00;99.90;;;;;;5024832;28;20210;-50
2022/06/21 11:29:51;;;;;;;4.33;1.30;;;20.10;99.90;;;;;;5031707;28;20612;-45
2022/06/21 11:32:28;;;;;;;4.70;1.33;;;20.10;99.90;;;;;;5022515;28;20230;-43
2022/06/21 11:35:03;;;;;;;1.10;0.93;;;20.20;99.90;;;;;;5031726;28;20594;-46
2022/06/21 11:37:53;;;;;;;4.97;1.37;;;20.20;99.90;;;;;;5025187;28;20974;-49
2022/06/21 11:40:33;;;;;;;4.53;1.40;;;20.20;99.90;;;;;;5025820;28;20204;-45
2022/06/21 11:43:03;;;;;;;2.07;1.20;;;20.20;99.90;;;;;;5031476;28;20325;-48
2022/06/21 11:45:48;;;;;;;3.80;1.47;;;20.10;99.90;;;;;;5017722;28;20223;-44
2022/06/21 11:48:51;;;;;;;5.20;1.70;;;20.20;99.90;;;;;;5023214;28;20203;-46
2022/06/21 11:51:42;;;;;;;4.47;1.23;;;20.20;99.90;;;;;;5030490;28;20206;-46
2022/06/21 11:54:12;;;;;;;2.60;1.37;;;20.20;99.90;;;;;;5034238;28;20207;-44
2022/06/21 11:56:49;;;;;;;3.30;1.20;;;20.40;99.90;;;;;;5039383;28;20316;-43
2022/06/21 11:59:25;;;;;;;2.30;1.13;;;20.60;99.60;;;;;;5024981;28;20305;-48
2022/06/21 12:01:57;;;;;;;3.83;1.80;;;20.60;99.10;;;;;;5028547;28;20701;-44
2022/06/21 12:04:36;;;;;;;9.00;1.40;;;20.50;99.50;;;;;;5027749;28;22349;-47
2022/06/21 12:07:10;;;;;;;3.40;1.30;;;20.60;99.90;;;;;;5038097;28;20288;-43
2022/06/21 12:09:42;;;;;;;3.90;1.37;;;21.00;99.90;;;;;;5041498;28;20210;-46
2022/06/21 12:12:28;;;;;;;2.60;1.50;;;21.10;99.80;;;;;;5035794;28;20717;-47
2022/06/21 12:15:10;;;;;;;1.97;1.30;;;21.10;99.80;;;;;;5025191;28;20222;-47
2022/06/21 12:17:46;;;;;;;2.40;1.10;;;21.10;99.30;;;;;;5039239;28;20212;-49
2022/06/21 12:20:19;;;;;;;3.40;1.83;;;21.30;98.90;;;;;;5028049;28;20222;-49
2022/06/21 12:22:51;;;;;;;4.95;1.65;;;21.40;98.20;;;;;;5031293;28;20731;-43
2022/06/21 12:25:21;;;;;;;1.63;1.20;;;21.30;98.60;;;;;;5034193;28;20191;-46
2022/06/21 12:27:48;;;;;;;2.43;1.60;;;21.00;98.90;;;;;;5038163;28;20672;-43
2022/06/21 12:30:19;;;;;;;4.87;1.60;;;20.90;99.00;;;;;;5015684;28;20235;-43
2022/06/21 12:32:48;;;;;;;3.33;1.37;;;21.00;98.40;;;;;;5036413;28;20223;-45
2022/06/21 12:35:17;;;;;;;5.27;2.20;;;21.20;98.50;;;;;;5029174;28;20241;-45
2022/06/21 12:37:48;;;;;;;3.78;1.50;;;21.30;97.70;;;;;;5035533;28;20537;-45
2022/06/21 12:40:25;;;;;;;2.33;1.60;;;21.30;98.10;;;;;;5040354;28;20211;-45
2022/06/21 12:43:18;;;;;;;1.92;1.20;;;21.60;98.40;;;;;;5035089;28;20306;-47
2022/06/21 12:45:54;;;;;;;2.40;1.88;;;21.70;97.90;;;;;;5023121;28;20215;-47
2022/06/21 12:48:35;;;;;;;2.00;1.23;;;21.70;98.20;;;;;;5023959;28;20207;-45
2022/06/21 12:51:10;;;;;;;3.97;1.40;;;21.80;97.60;;;;;;5031575;28;20229;-47
2022/06/21 12:54:05;;;;;;;3.58;1.15;;;21.80;97.70;;;;;;5034834;28;20241;-45
2022/06/21 12:57:05;;;;;;;3.50;1.20;;;22.10;97.30;;;;;;5030488;28;20352;-47
2022/06/21 12:59:53;;;;;;;1.98;1.27;;;22.30;97.30;;;;;;4973538;28;20229;-45
2022/06/21 13:03:00;;;;;;;4.78;2.30;;;22.60;95.70;;;;;;5020084;28;20298;-45
2022/06/21 13:05:38;;;;;;;3.20;1.48;;;22.70;95.00;;;;;;5025063;28;20199;-45
2022/06/21 13:08:42;;;;;;;3.25;1.40;;;22.70;95.30;;;;;;5035654;28;20237;-44
2022/06/21 13:11:23;;;;;;;4.43;1.35;;;23.40;93.50;;;;;;5000306;28;20231;-44
2022/06/21 13:14:15;;;;;;;3.47;1.40;;;23.60;93.10;;;;;;5020647;28;20219;-45
2022/06/21 13:16:52;;;;;;;2.58;1.45;;;23.70;91.80;;;;;;5024327;28;20200;-44
2022/06/21 13:19:40;;;;;;;2.10;1.70;;;23.70;92.10;;;;;;5040823;28;20238;-44
2022/06/21 13:22:30;;;;;;;3.22;1.63;;;23.30;92.00;;;;;;5036694;28;20215;-44
2022/06/21 13:25:14;;;;;;;3.22;1.40;;;23.60;92.60;;;;;;5025594;28;20222;-44
2022/06/21 13:27:56;;;;;;;4.00;1.95;;;24.00;93.20;;;;;;5028228;28;20191;-44
2022/06/21 13:30:35;;;;;;;2.80;1.40;;;24.30;92.30;;;;;;5026592;28;20207;-46
2022/06/21 13:33:10;;;;;;;5.43;1.60;;;24.40;91.00;;;;;;5026323;28;20210;-45
2022/06/21 13:35:47;;;;;;;3.58;1.20;;;24.40;90.90;;;;;;5028941;28;20194;-43
2022/06/21 13:38:24;;;;;;;3.33;1.55;;;24.60;91.60;;;;;;5038058;28;20278;-43
2022/06/21 13:40:59;;;;;;;4.50;1.63;;;25.10;89.10;;;;;;5036959;28;20222;-46
2022/06/21 13:43:33;;;;;;;3.53;1.38;;;25.40;89.20;;;;;;5038185;28;20661;-45